sensor_id;sensor_type;location;lat;lon;timestamp;P1;durP1;ratioP1;P2;durP2;ratioP2
71083;SDS011;58741;52.672;13.548;2023-07-29T00:00:52;0.57;;;0.40;;
71083;SDS011;58741;52.672;13.548;2023-07-29T00:03:18;0.93;;;0.70;;
71083;SDS011;58741;52.672;13.548;2023-07-29T00:05:43;1.48;;;0.60;;
71083;SDS011;58741;52.672;13.548;2023-07-29T00:08:09;0.80;;;0.68;;
71083;SDS011;58741;52.672;13.548;2023-07-29T00:10:38;0.45;;;0.45;;
71083;SDS011;58741;52.672;13.548;2023-07-29T00:13:04;1.80;;;0.70;;
71083;SDS011;58741;52.672;13.548;2023-07-29T00:15:30;1.40;;;0.63;;
71083;SDS011;58741;52.672;13.548;2023-07-29T00:17:56;0.73;;;0.60;;
71083;SDS011;58741;52.672;13.548;2023-07-29T00:20:22;0.80;;;0.80;;
71083;SDS011;58741;52.672;13.548;2023-07-29T00:22:47;0.70;;;0.70;;
71083;SDS011;58741;52.672;13.548;2023-07-29T00:25:15;0.82;;;0.70;;
71083;SDS011;58741;52.672;13.548;2023-07-29T00:27:41;1.42;;;0.77;;
71083;SDS011;58741;52.672;13.548;2023-07-29T00:30:07;0.57;;;0.57;;
71083;SDS011;58741;52.672;13.548;2023-07-29T00:32:35;0.95;;;0.80;;
71083;SDS011;58741;52.672;13.548;2023-07-29T00:35:01;0.80;;;0.70;;
71083;SDS011;58741;52.672;13.548;2023-07-29T00:37:27;1.00;;;0.70;;
71083;SDS011;58741;52.672;13.548;2023-07-29T00:39:53;1.33;;;0.80;;
71083;SDS011;58741;52.672;13.548;2023-07-29T00:42:19;0.88;;;0.65;;
71083;SDS011;58741;52.672;13.548;2023-07-29T00:44:45;1.10;;;0.90;;
71083;SDS011;58741;52.672;13.548;2023-07-29T00:47:10;0.82;;;0.70;;
71083;SDS011;58741;52.672;13.548;2023-07-29T00:49:37;2.08;;;0.73;;
71083;SDS011;58741;52.672;13.548;2023-07-29T00:52:03;0.57;;;0.50;;
71083;SDS011;58741;52.672;13.548;2023-07-29T00:54:29;1.40;;;0.70;;
71083;SDS011;58741;52.672;13.548;2023-07-29T00:56:54;0.60;;;0.60;;
71083;SDS011;58741;52.672;13.548;2023-07-29T00:59:20;0.50;;;0.50;;
71083;SDS011;58741;52.672;13.548;2023-07-29T01:01:46;0.70;;;0.60;;
71083;SDS011;58741;52.672;13.548;2023-07-29T01:04:11;0.88;;;0.68;;
71083;SDS011;58741;52.672;13.548;2023-07-29T01:12:20;1.25;;;0.80;;
71083;SDS011;58741;52.672;13.548;2023-07-29T01:15:04;1.05;;;0.80;;
71083;SDS011;58741;52.672;13.548;2023-07-29T01:17:33;1.23;;;0.77;;
71083;SDS011;58741;52.672;13.548;2023-07-29T01:20:08;0.82;;;0.80;;
71083;SDS011;58741;52.672;13.548;2023-07-29T01:22:45;0.82;;;0.73;;
71083;SDS011;58741;52.672;13.548;2023-07-29T01:25:12;1.67;;;1.02;;
71083;SDS011;58741;52.672;13.548;2023-07-29T01:27:38;0.95;;;0.80;;
71083;SDS011;58741;52.672;13.548;2023-07-29T01:30:05;1.23;;;0.85;;
71083;SDS011;58741;52.672;13.548;2023-07-29T01:37:51;1.27;;;0.90;;
71083;SDS011;58741;52.672;13.548;2023-07-29T01:40:21;0.90;;;0.75;;
71083;SDS011;58741;52.672;13.548;2023-07-29T01:42:49;0.85;;;0.80;;
71083;SDS011;58741;52.672;13.548;2023-07-29T01:45:15;1.17;;;0.80;;
71083;SDS011;58741;52.672;13.548;2023-07-29T01:47:41;1.05;;;0.80;;
71083;SDS011;58741;52.672;13.548;2023-07-29T01:50:07;1.27;;;0.90;;
71083;SDS011;58741;52.672;13.548;2023-07-29T01:52:34;1.48;;;0.98;;
71083;SDS011;58741;52.672;13.548;2023-07-29T01:55:00;1.25;;;0.95;;
71083;SDS011;58741;52.672;13.548;2023-07-29T01:57:26;1.05;;;0.77;;
71083;SDS011;58741;52.672;13.548;2023-07-29T01:59:52;1.48;;;1.05;;
71083;SDS011;58741;52.672;13.548;2023-07-29T02:02:17;1.10;;;0.90;;
71083;SDS011;58741;52.672;13.548;2023-07-29T02:04:43;2.00;;;0.85;;
71083;SDS011;58741;52.672;13.548;2023-07-29T02:07:10;1.27;;;1.02;;
71083;SDS011;58741;52.672;13.548;2023-07-29T02:09:35;2.05;;;1.00;;
71083;SDS011;58741;52.672;13.548;2023-07-29T02:12:01;1.48;;;0.75;;
71083;SDS011;58741;52.672;13.548;2023-07-29T02:14:36;0.95;;;0.82;;
71083;SDS011;58741;52.672;13.548;2023-07-29T02:17:01;2.50;;;1.15;;
71083;SDS011;58741;52.672;13.548;2023-07-29T02:19:27;0.77;;;0.70;;
71083;SDS011;58741;52.672;13.548;2023-07-29T02:21:53;3.53;;;1.00;;
71083;SDS011;58741;52.672;13.548;2023-07-29T02:24:18;1.73;;;1.13;;
71083;SDS011;58741;52.672;13.548;2023-07-29T02:26:44;2.00;;;1.10;;
71083;SDS011;58741;52.672;13.548;2023-07-29T02:29:10;1.10;;;0.70;;
71083;SDS011;58741;52.672;13.548;2023-07-29T02:31:35;0.90;;;0.80;;
71083;SDS011;58741;52.672;13.548;2023-07-29T02:34:02;1.20;;;0.90;;
71083;SDS011;58741;52.672;13.548;2023-07-29T02:36:29;0.73;;;0.73;;
71083;SDS011;58741;52.672;13.548;2023-07-29T02:38:55;0.85;;;0.70;;
71083;SDS011;58741;52.672;13.548;2023-07-29T02:41:20;0.57;;;0.57;;
71083;SDS011;58741;52.672;13.548;2023-07-29T02:43:49;1.50;;;0.77;;
71083;SDS011;58741;52.672;13.548;2023-07-29T02:46:16;1.40;;;0.90;;
71083;SDS011;58741;52.672;13.548;2023-07-29T02:48:43;1.10;;;0.90;;
71083;SDS011;58741;52.672;13.548;2023-07-29T02:51:09;0.50;;;0.50;;
71083;SDS011;58741;52.672;13.548;2023-07-29T02:53:35;1.65;;;0.80;;
71083;SDS011;58741;52.672;13.548;2023-07-29T02:56:03;0.70;;;0.60;;
71083;SDS011;58741;52.672;13.548;2023-07-29T02:58:30;0.88;;;0.73;;
71083;SDS011;58741;52.672;13.548;2023-07-29T03:01:02;1.15;;;0.98;;
71083;SDS011;58741;52.672;13.548;2023-07-29T03:03:29;1.33;;;1.02;;
71083;SDS011;58741;52.672;13.548;2023-07-29T03:05:59;0.60;;;0.60;;
71083;SDS011;58741;52.672;13.548;2023-07-29T03:08:24;1.05;;;0.80;;
71083;SDS011;58741;52.672;13.548;2023-07-29T03:10:50;0.43;;;0.43;;
71083;SDS011;58741;52.672;13.548;2023-07-29T03:13:15;0.93;;;0.60;;
71083;SDS011;58741;52.672;13.548;2023-07-29T03:15:41;0.65;;;0.65;;
71083;SDS011;58741;52.672;13.548;2023-07-29T03:18:07;0.77;;;0.77;;
71083;SDS011;58741;52.672;13.548;2023-07-29T03:20:32;1.05;;;0.70;;
71083;SDS011;58741;52.672;13.548;2023-07-29T03:22:58;1.05;;;0.80;;
71083;SDS011;58741;52.672;13.548;2023-07-29T03:25:23;1.33;;;0.98;;
71083;SDS011;58741;52.672;13.548;2023-07-29T03:27:49;1.40;;;0.82;;
71083;SDS011;58741;52.672;13.548;2023-07-29T03:30:14;1.60;;;0.80;;
71083;SDS011;58741;52.672;13.548;2023-07-29T03:32:42;1.13;;;0.88;;
71083;SDS011;58741;52.672;13.548;2023-07-29T03:35:10;1.33;;;0.90;;
71083;SDS011;58741;52.672;13.548;2023-07-29T03:37:36;1.55;;;0.68;;
71083;SDS011;58741;52.672;13.548;2023-07-29T03:40:02;1.02;;;0.70;;
71083;SDS011;58741;52.672;13.548;2023-07-29T03:42:28;0.95;;;0.80;;
71083;SDS011;58741;52.672;13.548;2023-07-29T03:44:53;0.65;;;0.57;;
71083;SDS011;58741;52.672;13.548;2023-07-29T03:47:19;1.33;;;0.70;;
71083;SDS011;58741;52.672;13.548;2023-07-29T03:49:45;1.60;;;1.02;;
71083;SDS011;58741;52.672;13.548;2023-07-29T03:52:11;0.73;;;0.63;;
71083;SDS011;58741;52.672;13.548;2023-07-29T03:54:36;0.50;;;0.50;;
71083;SDS011;58741;52.672;13.548;2023-07-29T03:57:02;1.10;;;0.73;;
71083;SDS011;58741;52.672;13.548;2023-07-29T03:59:28;0.90;;;0.65;;
71083;SDS011;58741;52.672;13.548;2023-07-29T04:01:54;0.50;;;0.50;;
71083;SDS011;58741;52.672;13.548;2023-07-29T04:04:23;1.15;;;0.70;;
71083;SDS011;58741;52.672;13.548;2023-07-29T04:06:49;1.20;;;0.85;;
71083;SDS011;58741;52.672;13.548;2023-07-29T04:09:15;0.77;;;0.52;;
71083;SDS011;58741;52.672;13.548;2023-07-29T04:11:40;1.63;;;0.93;;
71083;SDS011;58741;52.672;13.548;2023-07-29T04:14:06;0.98;;;0.77;;
71083;SDS011;58741;52.672;13.548;2023-07-29T04:16:32;1.05;;;0.70;;
71083;SDS011;58741;52.672;13.548;2023-07-29T04:18:57;0.70;;;0.63;;
71083;SDS011;58741;52.672;13.548;2023-07-29T04:21:23;1.13;;;0.70;;
71083;SDS011;58741;52.672;13.548;2023-07-29T04:23:48;0.70;;;0.70;;
71083;SDS011;58741;52.672;13.548;2023-07-29T04:26:14;0.65;;;0.55;;
71083;SDS011;58741;52.672;13.548;2023-07-29T04:28:39;0.68;;;0.60;;
71083;SDS011;58741;52.672;13.548;2023-07-29T04:31:05;1.08;;;0.75;;
71083;SDS011;58741;52.672;13.548;2023-07-29T04:33:31;0.60;;;0.60;;
71083;SDS011;58741;52.672;13.548;2023-07-29T04:35:57;0.40;;;0.40;;
71083;SDS011;58741;52.672;13.548;2023-07-29T04:38:24;1.00;;;0.68;;
71083;SDS011;58741;52.672;13.548;2023-07-29T04:40:52;0.88;;;0.55;;
71083;SDS011;58741;52.672;13.548;2023-07-29T04:43:18;1.23;;;0.73;;
71083;SDS011;58741;52.672;13.548;2023-07-29T04:45:43;0.50;;;0.50;;
71083;SDS011;58741;52.672;13.548;2023-07-29T04:48:09;1.48;;;0.80;;
71083;SDS011;58741;52.672;13.548;2023-07-29T04:50:35;0.63;;;0.60;;
71083;SDS011;58741;52.672;13.548;2023-07-29T04:53:00;0.40;;;0.40;;
71083;SDS011;58741;52.672;13.548;2023-07-29T04:55:26;0.63;;;0.63;;
71083;SDS011;58741;52.672;13.548;2023-07-29T04:57:51;1.00;;;0.70;;
71083;SDS011;58741;52.672;13.548;2023-07-29T05:00:17;0.40;;;0.40;;
71083;SDS011;58741;52.672;13.548;2023-07-29T05:02:44;0.98;;;0.73;;
71083;SDS011;58741;52.672;13.548;2023-07-29T05:05:09;0.60;;;0.50;;
71083;SDS011;58741;52.672;13.548;2023-07-29T05:07:35;0.40;;;0.40;;
71083;SDS011;58741;52.672;13.548;2023-07-29T05:10:01;0.40;;;0.40;;
71083;SDS011;58741;52.672;13.548;2023-07-29T05:12:27;1.17;;;0.73;;
71083;SDS011;58741;52.672;13.548;2023-07-29T05:14:54;0.77;;;0.60;;
71083;SDS011;58741;52.672;13.548;2023-07-29T05:17:19;0.63;;;0.63;;
71083;SDS011;58741;52.672;13.548;2023-07-29T05:19:45;0.70;;;0.60;;
71083;SDS011;58741;52.672;13.548;2023-07-29T05:22:11;0.98;;;0.88;;
71083;SDS011;58741;52.672;13.548;2023-07-29T05:24:37;1.05;;;0.50;;
71083;SDS011;58741;52.672;13.548;2023-07-29T05:27:02;0.52;;;0.50;;
71083;SDS011;58741;52.672;13.548;2023-07-29T05:29:28;0.60;;;0.60;;
71083;SDS011;58741;52.672;13.548;2023-07-29T05:31:54;0.80;;;0.70;;
71083;SDS011;58741;52.672;13.548;2023-07-29T05:34:19;0.57;;;0.50;;
71083;SDS011;58741;52.672;13.548;2023-07-29T05:36:45;1.17;;;0.70;;
71083;SDS011;58741;52.672;13.548;2023-07-29T05:39:10;0.40;;;0.40;;
71083;SDS011;58741;52.672;13.548;2023-07-29T05:41:37;0.77;;;0.50;;
71083;SDS011;58741;52.672;13.548;2023-07-29T05:44:03;1.05;;;0.75;;
71083;SDS011;58741;52.672;13.548;2023-07-29T05:46:28;0.98;;;0.52;;
71083;SDS011;58741;52.672;13.548;2023-07-29T05:48:54;0.85;;;0.70;;
71083;SDS011;58741;52.672;13.548;2023-07-29T05:51:20;1.58;;;0.75;;
71083;SDS011;58741;52.672;13.548;2023-07-29T05:53:45;0.47;;;0.47;;
71083;SDS011;58741;52.672;13.548;2023-07-29T05:56:11;1.35;;;0.68;;
71083;SDS011;58741;52.672;13.548;2023-07-29T05:58:37;2.85;;;0.90;;
71083;SDS011;58741;52.672;13.548;2023-07-29T06:01:03;0.68;;;0.68;;
71083;SDS011;58741;52.672;13.548;2023-07-29T06:03:28;1.70;;;1.10;;
71083;SDS011;58741;52.672;13.548;2023-07-29T06:05:54;1.60;;;1.20;;
71083;SDS011;58741;52.672;13.548;2023-07-29T06:08:19;1.00;;;0.90;;
71083;SDS011;58741;52.672;13.548;2023-07-29T06:10:45;1.42;;;0.98;;
71083;SDS011;58741;52.672;13.548;2023-07-29T06:13:11;1.10;;;1.00;;
71083;SDS011;58741;52.672;13.548;2023-07-29T06:15:37;1.17;;;0.82;;
71083;SDS011;58741;52.672;13.548;2023-07-29T06:18:02;0.80;;;0.70;;
71083;SDS011;58741;52.672;13.548;2023-07-29T06:20:28;3.95;;;1.45;;
71083;SDS011;58741;52.672;13.548;2023-07-29T06:22:54;3.20;;;0.88;;
71083;SDS011;58741;52.672;13.548;2023-07-29T06:25:19;1.65;;;0.93;;
71083;SDS011;58741;52.672;13.548;2023-07-29T06:27:45;2.00;;;1.35;;
71083;SDS011;58741;52.672;13.548;2023-07-29T06:30:10;2.05;;;1.15;;
71083;SDS011;58741;52.672;13.548;2023-07-29T06:32:36;0.80;;;0.70;;
71083;SDS011;58741;52.672;13.548;2023-07-29T06:35:01;1.77;;;1.00;;
71083;SDS011;58741;52.672;13.548;2023-07-29T06:37:27;2.28;;;1.35;;
71083;SDS011;58741;52.672;13.548;2023-07-29T06:39:53;1.27;;;1.15;;
71083;SDS011;58741;52.672;13.548;2023-07-29T06:42:18;1.15;;;1.05;;
71083;SDS011;58741;52.672;13.548;2023-07-29T06:44:44;1.25;;;0.80;;
71083;SDS011;58741;52.672;13.548;2023-07-29T06:47:11;1.05;;;0.88;;
71083;SDS011;58741;52.672;13.548;2023-07-29T06:49:36;2.08;;;1.10;;
71083;SDS011;58741;52.672;13.548;2023-07-29T06:52:02;2.15;;;1.08;;
71083;SDS011;58741;52.672;13.548;2023-07-29T06:54:28;0.63;;;0.60;;
71083;SDS011;58741;52.672;13.548;2023-07-29T06:56:53;0.85;;;0.70;;
71083;SDS011;58741;52.672;13.548;2023-07-29T06:59:19;0.88;;;0.70;;
71083;SDS011;58741;52.672;13.548;2023-07-29T07:01:45;0.45;;;0.45;;
71083;SDS011;58741;52.672;13.548;2023-07-29T07:04:10;0.95;;;0.90;;
71083;SDS011;58741;52.672;13.548;2023-07-29T07:06:36;2.45;;;1.10;;
71083;SDS011;58741;52.672;13.548;2023-07-29T07:09:02;0.95;;;0.80;;
71083;SDS011;58741;52.672;13.548;2023-07-29T07:11:27;1.20;;;0.75;;
71083;SDS011;58741;52.672;13.548;2023-07-29T07:13:53;0.90;;;0.85;;
71083;SDS011;58741;52.672;13.548;2023-07-29T07:16:19;1.13;;;0.98;;
71083;SDS011;58741;52.672;13.548;2023-07-29T07:18:44;0.82;;;0.82;;
71083;SDS011;58741;52.672;13.548;2023-07-29T07:21:10;1.02;;;0.90;;
71083;SDS011;58741;52.672;13.548;2023-07-29T07:23:35;1.77;;;1.00;;
71083;SDS011;58741;52.672;13.548;2023-07-29T07:26:01;0.77;;;0.77;;
71083;SDS011;58741;52.672;13.548;2023-07-29T07:28:27;1.15;;;0.82;;
71083;SDS011;58741;52.672;13.548;2023-07-29T07:30:53;0.82;;;0.82;;
71083;SDS011;58741;52.672;13.548;2023-07-29T07:33:20;0.65;;;0.65;;
71083;SDS011;58741;52.672;13.548;2023-07-29T07:35:46;2.20;;;1.08;;
71083;SDS011;58741;52.672;13.548;2023-07-29T07:38:12;1.20;;;1.00;;
71083;SDS011;58741;52.672;13.548;2023-07-29T07:40:37;1.63;;;0.98;;
71083;SDS011;58741;52.672;13.548;2023-07-29T07:43:03;1.05;;;0.95;;
71083;SDS011;58741;52.672;13.548;2023-07-29T07:45:29;1.13;;;1.00;;
71083;SDS011;58741;52.672;13.548;2023-07-29T07:47:54;0.82;;;0.70;;
71083;SDS011;58741;52.672;13.548;2023-07-29T07:50:21;1.02;;;0.90;;
71083;SDS011;58741;52.672;13.548;2023-07-29T07:52:46;2.15;;;1.02;;
71083;SDS011;58741;52.672;13.548;2023-07-29T07:55:12;0.73;;;0.73;;
71083;SDS011;58741;52.672;13.548;2023-07-29T07:57:37;1.02;;;0.88;;
71083;SDS011;58741;52.672;13.548;2023-07-29T08:00:03;0.80;;;0.77;;
71083;SDS011;58741;52.672;13.548;2023-07-29T08:02:38;1.20;;;1.10;;
71083;SDS011;58741;52.672;13.548;2023-07-29T08:05:03;1.05;;;0.77;;
71083;SDS011;58741;52.672;13.548;2023-07-29T08:07:29;1.33;;;0.90;;
71083;SDS011;58741;52.672;13.548;2023-07-29T08:09:55;1.55;;;1.00;;
71083;SDS011;58741;52.672;13.548;2023-07-29T08:12:20;0.90;;;0.90;;
71083;SDS011;58741;52.672;13.548;2023-07-29T08:14:46;0.77;;;0.77;;
71083;SDS011;58741;52.672;13.548;2023-07-29T08:17:11;2.15;;;1.15;;
71083;SDS011;58741;52.672;13.548;2023-07-29T08:19:37;1.17;;;1.08;;
71083;SDS011;58741;52.672;13.548;2023-07-29T08:22:03;1.20;;;1.10;;
71083;SDS011;58741;52.672;13.548;2023-07-29T08:24:29;1.00;;;0.90;;
71083;SDS011;58741;52.672;13.548;2023-07-29T08:26:54;0.98;;;0.90;;
71083;SDS011;58741;52.672;13.548;2023-07-29T08:29:20;1.60;;;1.10;;
71083;SDS011;58741;52.672;13.548;2023-07-29T08:31:45;1.98;;;1.50;;
71083;SDS011;58741;52.672;13.548;2023-07-29T08:34:11;2.28;;;1.40;;
71083;SDS011;58741;52.672;13.548;2023-07-29T08:36:36;2.17;;;1.50;;
71083;SDS011;58741;52.672;13.548;2023-07-29T08:39:02;1.40;;;1.30;;
71083;SDS011;58741;52.672;13.548;2023-07-29T08:44:21;1.10;;;1.00;;
71083;SDS011;58741;52.672;13.548;2023-07-29T08:46:48;1.33;;;0.93;;
71083;SDS011;58741;52.672;13.548;2023-07-29T08:49:15;1.02;;;0.90;;
71083;SDS011;58741;52.672;13.548;2023-07-29T08:51:44;1.42;;;1.33;;
71083;SDS011;58741;52.672;13.548;2023-07-29T08:54:12;2.78;;;1.13;;
71083;SDS011;58741;52.672;13.548;2023-07-29T08:56:40;3.17;;;1.50;;
71083;SDS011;58741;52.672;13.548;2023-07-29T08:59:06;1.55;;;1.13;;
71083;SDS011;58741;52.672;13.548;2023-07-29T09:01:33;1.17;;;1.05;;
71083;SDS011;58741;52.672;13.548;2023-07-29T09:03:59;0.80;;;0.80;;
71083;SDS011;58741;52.672;13.548;2023-07-29T09:06:25;1.98;;;1.55;;
71083;SDS011;58741;52.672;13.548;2023-07-29T09:08:52;3.53;;;1.65;;
71083;SDS011;58741;52.672;13.548;2023-07-29T09:11:19;1.80;;;1.67;;
71083;SDS011;58741;52.672;13.548;2023-07-29T09:13:46;1.33;;;1.17;;
71083;SDS011;58741;52.672;13.548;2023-07-29T09:16:12;4.35;;;1.80;;
71083;SDS011;58741;52.672;13.548;2023-07-29T09:18:38;1.20;;;1.10;;
71083;SDS011;58741;52.672;13.548;2023-07-29T09:21:03;1.40;;;1.30;;
71083;SDS011;58741;52.672;13.548;2023-07-29T09:23:38;1.20;;;1.10;;
71083;SDS011;58741;52.672;13.548;2023-07-29T09:26:06;1.10;;;1.00;;
71083;SDS011;58741;52.672;13.548;2023-07-29T09:28:35;1.70;;;1.45;;
71083;SDS011;58741;52.672;13.548;2023-07-29T09:31:03;2.33;;;1.27;;
71083;SDS011;58741;52.672;13.548;2023-07-29T09:33:29;2.08;;;1.48;;
71083;SDS011;58741;52.672;13.548;2023-07-29T09:36:00;1.75;;;1.25;;
71083;SDS011;58741;52.672;13.548;2023-07-29T09:38:28;1.20;;;1.10;;
71083;SDS011;58741;52.672;13.548;2023-07-29T09:41:11;1.65;;;1.30;;
71083;SDS011;58741;52.672;13.548;2023-07-29T09:43:47;1.17;;;1.08;;
71083;SDS011;58741;52.672;13.548;2023-07-29T09:46:12;1.23;;;1.13;;
71083;SDS011;58741;52.672;13.548;2023-07-29T09:48:38;1.58;;;1.10;;
71083;SDS011;58741;52.672;13.548;2023-07-29T09:51:10;1.15;;;1.05;;
71083;SDS011;58741;52.672;13.548;2023-07-29T09:53:42;1.02;;;0.95;;
71083;SDS011;58741;52.672;13.548;2023-07-29T09:56:08;0.80;;;0.80;;
71083;SDS011;58741;52.672;13.548;2023-07-29T09:58:34;0.80;;;0.80;;
71083;SDS011;58741;52.672;13.548;2023-07-29T10:01:00;1.05;;;0.95;;
71083;SDS011;58741;52.672;13.548;2023-07-29T10:03:26;1.60;;;0.90;;
71083;SDS011;58741;52.672;13.548;2023-07-29T10:05:53;3.80;;;1.20;;
71083;SDS011;58741;52.672;13.548;2023-07-29T10:08:20;0.60;;;0.60;;
71083;SDS011;58741;52.672;13.548;2023-07-29T10:10:49;0.90;;;0.90;;
71083;SDS011;58741;52.672;13.548;2023-07-29T10:13:15;1.02;;;0.93;;
71083;SDS011;58741;52.672;13.548;2023-07-29T10:15:44;0.63;;;0.63;;
71083;SDS011;58741;52.672;13.548;2023-07-29T10:18:10;1.25;;;1.00;;
71083;SDS011;58741;52.672;13.548;2023-07-29T10:20:36;1.13;;;0.80;;
71083;SDS011;58741;52.672;13.548;2023-07-29T10:23:03;1.30;;;0.85;;
71083;SDS011;58741;52.672;13.548;2023-07-29T10:25:41;0.90;;;0.80;;
71083;SDS011;58741;52.672;13.548;2023-07-29T10:28:11;1.42;;;0.70;;
71083;SDS011;58741;52.672;13.548;2023-07-29T10:30:38;1.10;;;1.00;;
71083;SDS011;58741;52.672;13.548;2023-07-29T10:33:05;1.05;;;0.98;;
71083;SDS011;58741;52.672;13.548;2023-07-29T10:35:34;1.05;;;0.95;;
71083;SDS011;58741;52.672;13.548;2023-07-29T10:38:01;1.13;;;0.80;;
71083;SDS011;58741;52.672;13.548;2023-07-29T10:40:43;1.00;;;0.90;;
71083;SDS011;58741;52.672;13.548;2023-07-29T10:43:18;0.80;;;0.80;;
71083;SDS011;58741;52.672;13.548;2023-07-29T10:45:49;0.80;;;0.80;;
71083;SDS011;58741;52.672;13.548;2023-07-29T10:54:02;0.55;;;0.55;;
71083;SDS011;58741;52.672;13.548;2023-07-29T10:56:34;0.80;;;0.80;;
71083;SDS011;58741;52.672;13.548;2023-07-29T11:01:54;1.00;;;0.70;;
71083;SDS011;58741;52.672;13.548;2023-07-29T11:04:23;0.70;;;0.70;;
71083;SDS011;58741;52.672;13.548;2023-07-29T11:09:42;0.98;;;0.77;;
71083;SDS011;58741;52.672;13.548;2023-07-29T11:15:03;0.60;;;0.60;;
71083;SDS011;58741;52.672;13.548;2023-07-29T11:17:35;1.08;;;0.80;;
71083;SDS011;58741;52.672;13.548;2023-07-29T11:20:04;0.55;;;0.55;;
71083;SDS011;58741;52.672;13.548;2023-07-29T11:22:30;0.65;;;0.65;;
71083;SDS011;58741;52.672;13.548;2023-07-29T11:24:56;2.42;;;1.02;;
71083;SDS011;58741;52.672;13.548;2023-07-29T11:27:21;1.70;;;1.13;;
71083;SDS011;58741;52.672;13.548;2023-07-29T11:29:48;0.77;;;0.68;;
71083;SDS011;58741;52.672;13.548;2023-07-29T11:32:14;0.20;;;0.20;;
71083;SDS011;58741;52.672;13.548;2023-07-29T11:34:41;0.40;;;0.40;;
71083;SDS011;58741;52.672;13.548;2023-07-29T11:37:10;0.20;;;0.20;;
71083;SDS011;58741;52.672;13.548;2023-07-29T11:39:40;0.30;;;0.30;;
71083;SDS011;58741;52.672;13.548;2023-07-29T11:42:06;1.20;;;0.40;;
71083;SDS011;58741;52.672;13.548;2023-07-29T11:44:36;0.38;;;0.30;;
71083;SDS011;58741;52.672;13.548;2023-07-29T11:47:01;0.20;;;0.20;;
71083;SDS011;58741;52.672;13.548;2023-07-29T11:49:30;0.13;;;0.13;;
71083;SDS011;58741;52.672;13.548;2023-07-29T11:51:58;0.20;;;0.20;;
71083;SDS011;58741;52.672;13.548;2023-07-29T11:54:24;0.10;;;0.10;;
71083;SDS011;58741;52.672;13.548;2023-07-29T11:56:50;0.30;;;0.30;;
71083;SDS011;58741;52.672;13.548;2023-07-29T11:59:16;0.20;;;0.20;;
71083;SDS011;58741;52.672;13.548;2023-07-29T12:01:42;0.10;;;0.10;;
71083;SDS011;58741;52.672;13.548;2023-07-29T12:04:07;0.40;;;0.28;;
71083;SDS011;58741;52.672;13.548;2023-07-29T12:06:33;0.85;;;0.30;;
71083;SDS011;58741;52.672;13.548;2023-07-29T12:08:59;0.20;;;0.20;;
71083;SDS011;58741;52.672;13.548;2023-07-29T12:11:25;0.30;;;0.30;;
71083;SDS011;58741;52.672;13.548;2023-07-29T12:13:54;0.15;;;0.15;;
71083;SDS011;58741;52.672;13.548;2023-07-29T12:16:20;0.30;;;0.30;;
71083;SDS011;58741;52.672;13.548;2023-07-29T12:18:46;0.32;;;0.30;;
71083;SDS011;58741;52.672;13.548;2023-07-29T12:21:14;0.20;;;0.20;;
71083;SDS011;58741;52.672;13.548;2023-07-29T12:23:39;0.47;;;0.40;;
71083;SDS011;58741;52.672;13.548;2023-07-29T12:26:05;0.20;;;0.20;;
71083;SDS011;58741;52.672;13.548;2023-07-29T12:28:31;0.20;;;0.20;;
71083;SDS011;58741;52.672;13.548;2023-07-29T12:30:57;0.20;;;0.20;;
71083;SDS011;58741;52.672;13.548;2023-07-29T12:33:31;0.20;;;0.20;;
71083;SDS011;58741;52.672;13.548;2023-07-29T12:35:58;0.22;;;0.22;;
71083;SDS011;58741;52.672;13.548;2023-07-29T12:38:27;0.20;;;0.20;;
71083;SDS011;58741;52.672;13.548;2023-07-29T12:40:56;1.55;;;0.30;;
71083;SDS011;58741;52.672;13.548;2023-07-29T12:43:22;0.30;;;0.30;;
71083;SDS011;58741;52.672;13.548;2023-07-29T12:45:50;0.30;;;0.30;;
71083;SDS011;58741;52.672;13.548;2023-07-29T12:48:16;0.20;;;0.20;;
71083;SDS011;58741;52.672;13.548;2023-07-29T12:50:42;0.52;;;0.30;;
71083;SDS011;58741;52.672;13.548;2023-07-29T12:53:08;3.63;;;0.50;;
71083;SDS011;58741;52.672;13.548;2023-07-29T12:55:37;0.20;;;0.20;;
71083;SDS011;58741;52.672;13.548;2023-07-29T12:58:03;0.28;;;0.28;;
71083;SDS011;58741;52.672;13.548;2023-07-29T13:00:29;0.22;;;0.20;;
71083;SDS011;58741;52.672;13.548;2023-07-29T13:02:54;0.20;;;0.20;;
71083;SDS011;58741;52.672;13.548;2023-07-29T13:05:20;0.30;;;0.20;;
71083;SDS011;58741;52.672;13.548;2023-07-29T13:07:46;0.20;;;0.20;;
71083;SDS011;58741;52.672;13.548;2023-07-29T13:10:12;0.35;;;0.35;;
71083;SDS011;58741;52.672;13.548;2023-07-29T13:12:38;0.30;;;0.30;;
71083;SDS011;58741;52.672;13.548;2023-07-29T13:15:04;0.25;;;0.25;;
71083;SDS011;58741;52.672;13.548;2023-07-29T13:17:31;0.28;;;0.28;;
71083;SDS011;58741;52.672;13.548;2023-07-29T13:19:58;0.40;;;0.40;;
71083;SDS011;58741;52.672;13.548;2023-07-29T13:22:23;0.20;;;0.20;;
71083;SDS011;58741;52.672;13.548;2023-07-29T13:24:49;0.60;;;0.50;;
71083;SDS011;58741;52.672;13.548;2023-07-29T13:27:14;0.50;;;0.50;;
71083;SDS011;58741;52.672;13.548;2023-07-29T13:29:40;0.73;;;0.60;;
71083;SDS011;58741;52.672;13.548;2023-07-29T13:32:06;0.77;;;0.60;;
71083;SDS011;58741;52.672;13.548;2023-07-29T13:34:32;0.45;;;0.45;;
71083;SDS011;58741;52.672;13.548;2023-07-29T13:36:59;0.47;;;0.47;;
71083;SDS011;58741;52.672;13.548;2023-07-29T13:39:25;0.70;;;0.60;;
71083;SDS011;58741;52.672;13.548;2023-07-29T13:41:51;1.52;;;0.52;;
71083;SDS011;58741;52.672;13.548;2023-07-29T13:44:16;0.65;;;0.60;;
71083;SDS011;58741;52.672;13.548;2023-07-29T13:46:42;0.40;;;0.40;;
71083;SDS011;58741;52.672;13.548;2023-07-29T13:49:07;0.50;;;0.50;;
71083;SDS011;58741;52.672;13.548;2023-07-29T13:51:33;0.60;;;0.60;;
71083;SDS011;58741;52.672;13.548;2023-07-29T13:53:58;0.40;;;0.40;;
71083;SDS011;58741;52.672;13.548;2023-07-29T13:56:24;0.40;;;0.40;;
71083;SDS011;58741;52.672;13.548;2023-07-29T13:58:50;0.55;;;0.55;;
71083;SDS011;58741;52.672;13.548;2023-07-29T14:01:15;4.15;;;0.68;;
71083;SDS011;58741;52.672;13.548;2023-07-29T14:03:41;0.90;;;0.60;;
71083;SDS011;58741;52.672;13.548;2023-07-29T14:06:06;0.80;;;0.60;;
71083;SDS011;58741;52.672;13.548;2023-07-29T14:08:32;1.15;;;0.68;;
71083;SDS011;58741;52.672;13.548;2023-07-29T14:10:58;0.80;;;0.60;;
71083;SDS011;58741;52.672;13.548;2023-07-29T14:13:23;0.40;;;0.40;;
71083;SDS011;58741;52.672;13.548;2023-07-29T14:15:49;1.10;;;0.60;;
71083;SDS011;58741;52.672;13.548;2023-07-29T14:18:14;0.40;;;0.40;;
71083;SDS011;58741;52.672;13.548;2023-07-29T14:20:40;0.55;;;0.45;;
71083;SDS011;58741;52.672;13.548;2023-07-29T14:23:06;0.40;;;0.40;;
71083;SDS011;58741;52.672;13.548;2023-07-29T14:25:32;1.17;;;0.50;;
71083;SDS011;58741;52.672;13.548;2023-07-29T14:27:57;0.98;;;0.50;;
71083;SDS011;58741;52.672;13.548;2023-07-29T14:30:23;0.50;;;0.50;;
71083;SDS011;58741;52.672;13.548;2023-07-29T14:32:49;0.77;;;0.50;;
71083;SDS011;58741;52.672;13.548;2023-07-29T14:35:14;0.50;;;0.50;;
71083;SDS011;58741;52.672;13.548;2023-07-29T14:40:14;0.60;;;0.50;;
71083;SDS011;58741;52.672;13.548;2023-07-29T14:42:40;0.82;;;0.50;;
71083;SDS011;58741;52.672;13.548;2023-07-29T14:45:06;0.50;;;0.38;;
71083;SDS011;58741;52.672;13.548;2023-07-29T14:47:32;0.43;;;0.40;;
71083;SDS011;58741;52.672;13.548;2023-07-29T14:49:59;0.40;;;0.40;;
71083;SDS011;58741;52.672;13.548;2023-07-29T14:52:25;0.20;;;0.20;;
71083;SDS011;58741;52.672;13.548;2023-07-29T14:54:51;0.60;;;0.45;;
71083;SDS011;58741;52.672;13.548;2023-07-29T14:57:16;0.47;;;0.47;;
71083;SDS011;58741;52.672;13.548;2023-07-29T14:59:42;0.32;;;0.32;;